Time;durP1;ratioP1;P1;durP2;ratioP2;P2;SDS_P1;SDS_P2;PMS_P1;PMS_P2;Temp;Humidity;BMP_temperature;BMP_pressure;BME280_temperature;BME280_humidity;BME280_pressure;Samples;Min_cycle;Max_cycle;Signal;HPM_P1;HPM_P2
2023/03/28 00:01:35;;;;;;;20.50;12.10;;;-0.50;99.90;;;;;;6215695;23;20032;-85
2023/03/28 00:04:22;;;;;;;25.13;11.80;;;-0.50;99.90;;;;;;6214590;23;20031;-86
2023/03/28 00:07:10;;;;;;;22.80;13.30;;;-0.50;99.90;;;;;;6214577;23;20029;-86
2023/03/28 00:09:58;;;;;;;31.45;13.65;;;-0.40;99.90;;;;;;6216063;23;20035;-85
2023/03/28 00:12:46;;;;;;;20.20;12.13;;;-0.30;99.90;;;;;;6215978;23;20439;-86
2023/03/28 00:15:37;;;;;;;22.23;11.75;;;-0.30;99.90;;;;;;6216022;23;20031;-86
2023/03/28 00:18:26;;;;;;;23.80;12.00;;;-0.20;99.90;;;;;;6216165;23;20031;-86
2023/03/28 00:21:28;;;;;;;24.65;11.90;;;-0.20;99.90;;;;;;6215755;23;20060;-85
2023/03/28 00:24:17;;;;;;;21.85;11.00;;;-0.20;99.90;;;;;;6192967;23;20032;-86
2023/03/28 00:27:08;;;;;;;21.65;10.68;;;-0.30;99.90;;;;;;6215616;23;20033;-86
2023/03/28 00:29:55;;;;;;;17.60;10.75;;;-0.30;99.90;;;;;;6216130;23;20055;-86
2023/03/28 00:32:44;;;;;;;17.10;10.77;;;-0.40;99.90;;;;;;6194091;23;20355;-87
2023/03/28 00:35:36;;;;;;;21.52;10.38;;;-0.50;99.90;;;;;;6214994;23;20044;-86
2023/03/28 00:38:23;;;;;;;16.60;9.02;;;-0.60;99.90;;;;;;6192232;23;20479;-86
2023/03/28 00:41:10;;;;;;;16.52;9.25;;;-0.60;99.90;;;;;;6215376;23;20048;-86
2023/03/28 00:44:01;;;;;;;21.25;9.32;;;-0.60;99.90;;;;;;6193511;23;20099;-86
2023/03/28 00:46:50;;;;;;;20.58;9.52;;;-0.50;99.90;;;;;;6216220;23;20029;-86
2023/03/28 00:49:37;;;;;;;16.50;9.85;;;-0.40;99.90;;;;;;6194251;23;20025;-86
2023/03/28 00:52:28;;;;;;;20.60;9.48;;;-0.40;99.90;;;;;;6216312;23;20052;-85
2023/03/28 00:55:25;;;;;;;22.30;10.30;;;-0.40;99.90;;;;;;6216109;23;20024;-86
2023/03/28 00:58:22;;;;;;;18.30;9.38;;;-0.30;99.90;;;;;;6215567;23;20091;-86
2023/03/28 01:01:14;;;;;;;19.85;11.27;;;-0.30;99.90;;;;;;6215288;23;20100;-85
2023/03/28 01:04:02;;;;;;;23.38;11.20;;;-0.30;99.90;;;;;;6215174;23;20036;-85
2023/03/28 01:06:53;;;;;;;19.45;10.57;;;-0.30;99.90;;;;;;6214920;23;20039;-86
2023/03/28 01:09:42;;;;;;;18.98;10.38;;;-0.30;99.90;;;;;;6215431;23;20099;-85
2023/03/28 01:12:31;;;;;;;23.73;10.50;;;-0.30;99.90;;;;;;6191838;23;20032;-87
2023/03/28 01:15:22;;;;;;;17.55;11.63;;;-0.40;99.90;;;;;;6192825;23;20032;-86
2023/03/28 01:18:15;;;;;;;19.85;11.35;;;-0.30;99.90;;;;;;6191691;23;20036;-86
2023/03/28 01:21:06;;;;;;;23.85;11.02;;;-0.30;99.90;;;;;;6191749;23;20032;-86
2023/03/28 01:24:15;;;;;;;21.33;11.20;;;-0.30;99.90;;;;;;6214899;23;20731;-86
2023/03/28 01:27:14;;;;;;;21.13;10.43;;;-0.40;99.90;;;;;;6193773;23;20028;-85
2023/03/28 01:30:32;;;;;;;20.65;10.48;;;-0.30;99.90;;;;;;6218889;23;20103;-85
2023/03/28 01:33:49;;;;;;;17.23;10.27;;;-0.40;99.90;;;;;;6222403;23;20432;-86
2023/03/28 01:37:04;;;;;;;22.10;11.95;;;-0.40;99.90;;;;;;6188829;23;20024;-87
2023/03/28 01:40:06;;;;;;;22.77;12.25;;;-0.40;99.90;;;;;;6214506;23;20025;-86
2023/03/28 01:43:01;;;;;;;22.92;11.13;;;-0.50;99.90;;;;;;6191819;23;20036;-86
2023/03/28 01:46:11;;;;;;;22.08;11.00;;;-0.50;99.90;;;;;;6214856;23;20487;-86
2023/03/28 01:49:25;;;;;;;18.33;10.93;;;-0.50;99.90;;;;;;6215147;23;20036;-87
2023/03/28 01:52:24;;;;;;;21.02;10.90;;;-0.60;99.90;;;;;;6215483;23;20344;-86
2023/03/28 01:55:22;;;;;;;19.63;10.75;;;-0.60;99.90;;;;;;6215816;23;20031;-85
2023/03/28 01:58:38;;;;;;;19.05;10.63;;;-0.60;99.90;;;;;;6215413;23;20035;-85
2023/03/28 02:01:39;;;;;;;19.50;10.55;;;-0.60;99.90;;;;;;6193282;23;20032;-84
2023/03/28 02:04:28;;;;;;;17.50;10.23;;;-0.70;99.90;;;;;;6216001;23;20031;-85
2023/03/28 02:07:20;;;;;;;15.07;9.93;;;-0.70;99.90;;;;;;6214818;23;20147;-86
2023/03/28 02:10:10;;;;;;;18.15;10.40;;;-0.70;99.90;;;;;;6212893;23;20028;-86
2023/03/28 02:13:16;;;;;;;22.60;10.20;;;-0.80;99.90;;;;;;6194898;23;20033;-86
2023/03/28 02:16:05;;;;;;;20.50;10.02;;;-0.80;99.90;;;;;;6215517;23;20021;-85
2023/03/28 02:18:55;;;;;;;18.40;9.75;;;-0.90;99.90;;;;;;6192473;23;20095;-86
2023/03/28 02:22:11;;;;;;;14.65;9.82;;;-1.00;99.90;;;;;;6192686;23;20024;-85
2023/03/28 02:24:59;;;;;;;16.08;10.32;;;-1.20;99.90;;;;;;6213080;23;20712;-85
2023/03/28 02:27:51;;;;;;;15.07;9.80;;;-1.20;99.90;;;;;;6215236;23;20052;-84
2023/03/28 02:30:39;;;;;;;18.05;11.10;;;-1.20;99.90;;;;;;6216495;23;20020;-85
2023/03/28 02:33:42;;;;;;;17.98;10.98;;;-1.20;99.90;;;;;;6192707;23;20025;-85
2023/03/28 02:36:32;;;;;;;;;;;-1.20;99.90;;;;;;6217141;23;20821;-85
2023/03/28 02:39:38;;;;;;;18.73;9.85;;;-1.20;99.90;;;;;;6194039;23;19919;-86
2023/03/28 02:42:47;;;;;;;22.20;9.85;;;-1.40;99.90;;;;;;6194421;23;20028;-85
2023/03/28 02:45:57;;;;;;;20.95;9.55;;;-1.40;99.90;;;;;;6192779;23;20151;-86
2023/03/28 02:48:47;;;;;;;17.30;10.07;;;-1.50;99.90;;;;;;6213211;23;20024;-86
2023/03/28 02:51:39;;;;;;;23.83;11.55;;;-1.50;99.90;;;;;;6215457;23;20124;-86
2023/03/28 02:54:34;;;;;;;16.70;10.20;;;-1.60;99.90;;;;;;6196524;23;20021;-87
2023/03/28 02:57:36;;;;;;;24.58;10.10;;;-1.70;99.90;;;;;;6216958;23;20036;-87
2023/03/28 03:00:24;;;;;;;25.70;10.68;;;-1.70;99.90;;;;;;6216916;23;20375;-86
2023/03/28 03:03:16;;;;;;;18.20;10.48;;;-1.60;99.90;;;;;;6217104;23;20040;-86
2023/03/28 03:06:04;;;;;;;16.90;10.32;;;-1.70;99.90;;;;;;6195836;23;20038;-87
2023/03/28 03:08:51;;;;;;;19.77;10.48;;;-1.70;99.90;;;;;;6195459;23;20039;-85
2023/03/28 03:11:38;;;;;;;23.58;10.40;;;-1.70;99.90;;;;;;6216276;23;20086;-85
2023/03/28 03:14:26;;;;;;;17.10;9.95;;;-1.70;99.90;;;;;;6217059;23;20032;-85
2023/03/28 03:17:15;;;;;;;24.55;12.27;;;-1.70;99.90;;;;;;6217930;23;20385;-86
2023/03/28 03:20:06;;;;;;;23.00;11.95;;;-1.70;99.90;;;;;;6195053;23;20106;-86
2023/03/28 03:22:54;;;;;;;19.13;10.75;;;-1.70;99.90;;;;;;6216804;23;20043;-87
2023/03/28 03:25:44;;;;;;;16.30;9.98;;;-1.70;99.90;;;;;;6193665;23;20032;-87
2023/03/28 03:28:32;;;;;;;17.90;10.40;;;-1.70;99.90;;;;;;6193965;23;20377;-86
2023/03/28 03:31:20;;;;;;;24.27;12.25;;;-1.80;99.90;;;;;;6222400;23;20025;-87
2023/03/28 03:34:07;;;;;;;21.98;11.23;;;-1.80;99.90;;;;;;6221404;23;20521;-86
2023/03/28 03:36:56;;;;;;;17.48;10.23;;;-1.80;99.90;;;;;;6222781;23;20051;-86
2023/03/28 03:39:44;;;;;;;17.05;11.00;;;-1.90;99.90;;;;;;6215744;23;20502;-86
2023/03/28 03:42:33;;;;;;;20.67;11.82;;;-2.00;99.90;;;;;;6193123;23;20025;-87
2023/03/28 03:45:21;;;;;;;19.55;10.32;;;-2.10;99.90;;;;;;6195394;23;20036;-87
2023/03/28 03:48:11;;;;;;;17.55;10.27;;;-2.20;99.90;;;;;;6215782;23;20025;-87
2023/03/28 03:50:58;;;;;;;19.58;10.02;;;-2.40;99.90;;;;;;6195212;23;20024;-87
2023/03/28 03:53:49;;;;;;;18.48;10.75;;;-2.50;99.90;;;;;;6199875;23;20317;-87
2023/03/28 03:56:39;;;;;;;16.77;9.68;;;-2.50;99.90;;;;;;6200599;23;20072;-87
2023/03/28 03:59:27;;;;;;;20.05;10.52;;;-2.50;99.90;;;;;;6196877;23;20028;-87
2023/03/28 04:02:17;;;;;;;26.42;11.60;;;-2.50;99.90;;;;;;6229610;23;20415;-86
2023/03/28 04:05:07;;;;;;;24.63;10.98;;;-2.50;99.90;;;;;;6230301;23;20024;-87
2023/03/28 04:07:59;;;;;;;24.52;10.73;;;-2.40;99.90;;;;;;6236047;23;20028;-86
2023/03/28 04:10:48;;;;;;;17.52;11.15;;;-2.30;99.90;;;;;;6219511;23;20024;-86
2023/03/28 04:13:36;;;;;;;21.02;11.52;;;-2.20;99.90;;;;;;6230701;23;20022;-86
2023/03/28 04:16:23;;;;;;;23.52;12.38;;;-2.10;99.90;;;;;;6232996;23;20025;-86
2023/03/28 04:19:12;;;;;;;30.55;14.68;;;-2.10;99.90;;;;;;6205125;23;20020;-86
2023/03/28 04:22:03;;;;;;;25.80;13.98;;;-2.10;99.90;;;;;;6196583;23;20025;-85
2023/03/28 04:24:52;;;;;;;28.88;13.00;;;-2.00;99.90;;;;;;6218751;23;20399;-86
2023/03/28 04:27:40;;;;;;;20.65;11.65;;;-2.00;99.90;;;;;;6217045;23;20038;-85
2023/03/28 04:30:29;;;;;;;30.70;13.18;;;-2.00;99.90;;;;;;6192896;23;20051;-86
2023/03/28 04:33:16;;;;;;;26.95;13.68;;;-2.00;99.90;;;;;;6216545;23;20028;-86
2023/03/28 04:36:06;;;;;;;25.83;14.35;;;-2.00;99.90;;;;;;6217765;23;20024;-85
2023/03/28 04:38:57;;;;;;;22.95;14.43;;;-1.90;99.90;;;;;;6194133;23;20029;-84
2023/03/28 04:41:44;;;;;;;25.27;13.10;;;-2.00;99.90;;;;;;6216272;23;20020;-82
2023/03/28 04:44:32;;;;;;;23.98;13.98;;;-2.00;99.90;;;;;;6193676;23;20021;-83
2023/03/28 04:47:19;;;;;;;21.23;11.52;;;-2.10;99.90;;;;;;6216764;23;20095;-85
2023/03/28 04:50:08;;;;;;;22.10;12.60;;;-2.10;99.90;;;;;;6205748;23;20036;-83
2023/03/28 04:52:56;;;;;;;26.33;11.80;;;-2.20;99.90;;;;;;6224529;23;20036;-90
2023/03/28 04:55:49;;;;;;;28.00;11.73;;;-2.20;99.90;;;;;;6203077;23;20028;-89
2023/03/28 04:58:36;;;;;;;26.40;12.10;;;-2.30;99.90;;;;;;6214295;23;20078;-87
2023/03/28 05:01:26;;;;;;;23.98;11.93;;;-2.40;99.90;;;;;;6218630;23;20024;-91
2023/03/28 05:04:17;;;;;;;24.02;13.20;;;-2.40;99.90;;;;;;6241674;23;20008;-91
2023/03/28 05:07:05;;;;;;;26.58;13.43;;;-2.40;99.90;;;;;;6212042;23;20028;-87
2023/03/28 05:10:03;;;;;;;27.33;11.98;;;-2.40;99.90;;;;;;6197893;23;20076;-86
2023/03/28 05:12:51;;;;;;;28.05;12.65;;;-2.50;99.90;;;;;;6194349;23;20035;-86
2023/03/28 05:15:59;;;;;;;;;;;;;;;;;;;;;
2023/03/28 05:19:34;;;;;;;;;;;;;;;;;;;;;
2023/03/28 05:22:26;;;;;;;30.45;12.57;;;-2.50;99.90;;;;;;6213676;23;20088;-85
2023/03/28 05:25:28;;;;;;;24.27;12.35;;;-2.60;99.90;;;;;;6193755;23;20039;-85
2023/03/28 05:32:26;;;;;;;25.23;13.00;;;-2.40;99.90;;;;;;6093997;23;20053;-85
2023/03/28 05:35:15;;;;;;;24.65;13.75;;;-2.30;99.90;;;;;;6076060;23;20034;-83
2023/03/28 05:38:03;;;;;;;29.83;13.70;;;-2.20;99.90;;;;;;6075220;23;20423;-84
2023/03/28 05:40:56;;;;;;;25.42;14.13;;;-2.20;99.90;;;;;;6093429;23;20030;-85
2023/03/28 05:44:11;;;;;;;;;;;;;;;;;;;;;
2023/03/28 05:47:20;;;;;;;27.88;14.38;;;-2.10;99.90;;;;;;6089973;23;20026;-85
2023/03/28 07:24:02;;;;;;;15.38;7.50;;;1.50;48.60;;;;;;6243889;23;20035;-90
2023/03/28 07:26:52;;;;;;;16.98;7.53;;;1.60;1.00;;;;;;6225815;23;20399;-89
2023/03/28 07:34:36;;;;;;;17.65;6.22;;;2.10;1.00;;;;;;6205160;23;20034;-90
2023/03/28 07:37:38;;;;;;;16.05;5.90;;;2.50;1.00;;;;;;6244582;23;20107;-89
2023/03/28 07:40:37;;;;;;;12.93;5.60;;;2.90;99.90;;;;;;6247065;23;20024;-90
2023/03/28 08:12:59;;;;;;;8.77;3.45;;;5.00;5.60;;;;;;6006310;23;20149;-87
2023/03/28 08:19:24;;;;;;;16.27;3.58;;;6.00;1.00;;;;;;6011383;23;20123;-87
2023/03/28 08:22:36;;;;;;;8.80;3.13;;;6.90;99.90;;;;;;6009848;23;20137;-87
2023/03/28 08:30:03;;;;;;;;;;;;;;;;;;;;;
2023/03/28 08:37:38;;;;;;;11.65;3.70;;;8.40;99.90;;;;;;6038346;23;20086;-90
2023/03/28 08:49:56;;;;;;;9.50;3.30;;;9.10;99.90;;;;;;5968578;23;20368;-91
2023/03/28 08:52:59;;;;;;;13.90;4.40;;;7.60;99.90;;;;;;6049832;23;20037;-88
2023/03/28 08:56:02;;;;;;;6.95;2.75;;;7.60;99.90;;;;;;6078042;23;20030;-86
2023/03/28 08:59:17;;;;;;;9.20;3.13;;;7.50;99.90;;;;;;6246431;23;20024;-89
2023/03/28 09:02:28;;;;;;;11.20;3.03;;;8.50;99.90;;;;;;6225450;23;20327;-89
2023/03/28 09:06:38;;;;;;;;;;;;;;;;;;;;;
2023/03/28 09:09:53;;;;;;;11.07;3.28;;;7.50;99.90;;;;;;6144700;23;20060;-88
2023/03/28 09:18:19;;;;;;;;;;;;;;;;;;;;;
2023/03/28 09:21:54;;;;;;;15.55;2.90;;;8.60;99.90;;;;;;6069748;23;20027;-91
2023/03/28 09:25:31;;;;;;;10.52;2.85;;;9.10;99.90;;;;;;6051437;23;20030;-84
2023/03/28 09:28:52;;;;;;;11.77;3.05;;;9.40;99.90;;;;;;6043448;23;20035;-84
2023/03/28 09:31:45;;;;;;;16.65;3.83;;;9.10;99.70;;;;;;6182773;23;20028;-86
2023/03/28 09:34:45;;;;;;;9.85;3.80;;;7.30;92.80;;;;;;6183241;23;20033;-87
2023/03/28 09:37:39;;;;;;;8.77;3.08;;;6.90;98.20;;;;;;6184067;23;20134;-86
2023/03/28 09:40:39;;;;;;;12.18;2.97;;;6.90;99.90;;;;;;6225089;23;20024;-86
2023/03/28 09:43:40;;;;;;;6.65;2.58;;;7.70;99.90;;;;;;6247803;22;20296;-86
2023/03/28 09:46:47;;;;;;;5.25;2.50;;;7.60;98.00;;;;;;6223210;23;20024;-86
2023/03/28 09:49:39;;;;;;;8.40;2.60;;;8.80;99.90;;;;;;6245244;23;20454;-83
2023/03/28 09:53:09;;;;;;;6.13;2.13;;;11.00;91.20;;;;;;6225306;23;20042;-87
2023/03/28 09:56:48;;;;;;;6.50;2.45;;;11.70;59.80;;;;;;6248843;23;20095;-90
2023/03/28 09:59:51;;;;;;;;;;;;;;;;;;;;;
2023/03/28 10:03:52;;;;;;;8.63;2.88;;;7.90;44.00;;;;;;6227080;23;20303;-89
2023/03/28 10:07:09;;;;;;;13.10;3.30;;;7.40;38.50;;;;;;6226446;23;20052;-87
2023/03/28 10:10:59;;;;;;;5.30;2.88;;;7.10;35.40;;;;;;6249787;23;20020;-89
2023/03/28 10:18:20;;;;;;;7.07;3.83;;;6.60;35.60;;;;;;6100649;23;20672;-92
2023/03/28 10:21:20;;;;;;;13.25;2.95;;;6.60;49.40;;;;;;6079506;23;20027;-91
2023/03/28 10:36:02;;;;;;;8.02;3.08;;;10.00;22.90;;;;;;6096715;23;20687;-88
2023/03/28 10:39:52;;;;;;;8.45;2.67;;;10.70;27.10;;;;;;6191478;23;20035;-88
2023/03/28 10:42:52;;;;;;;6.88;2.75;;;12.60;30.20;;;;;;6159117;23;20031;-89
2023/03/28 10:46:02;;;;;;;7.55;2.70;;;14.30;15.60;;;;;;6224618;23;20439;-88
2023/03/28 10:49:04;;;;;;;5.43;2.45;;;13.30;1.00;;;;;;6228373;23;20119;-90
2023/03/28 10:53:11;;;;;;;;;;;;;;;;;;;;;
2023/03/28 10:56:55;;;;;;;8.73;2.47;;;9.80;1.00;;;;;;6165595;23;20033;-86
2023/03/28 11:00:24;;;;;;;;;;;;;;;;;;;;;
2023/03/28 11:04:13;;;;;;;4.07;1.67;;;14.20;9.80;;;;;;6066570;23;20133;-87
2023/03/28 11:07:20;;;;;;;7.45;2.47;;;15.60;1.00;;;;;;6049686;23;20035;-86
2023/03/28 11:10:14;;;;;;;5.60;2.00;;;16.50;1.00;;;;;;6068158;23;20080;-87
2023/03/28 11:13:25;;;;;;;5.47;1.95;;;17.50;1.00;;;;;;6069987;23;20120;-88
2023/03/28 11:16:35;;;;;;;9.85;2.00;;;16.10;1.00;;;;;;6067228;23;20030;-88
2023/03/28 11:20:00;;;;;;;4.68;2.10;;;13.70;1.00;;;;;;6066864;23;20062;-87
2023/03/28 11:23:23;;;;;;;5.03;2.25;;;12.80;1.00;;;;;;6184700;23;20063;-86
2023/03/28 11:26:25;;;;;;;4.78;2.00;;;11.50;1.00;;;;;;6243292;23;20039;-86
2023/03/28 11:29:23;;;;;;;6.57;2.22;;;11.60;1.00;;;;;;6246549;23;20024;-87
2023/03/28 11:32:39;;;;;;;4.75;2.10;;;11.20;1.00;;;;;;6245602;23;20043;-88
2023/03/28 11:35:50;;;;;;;3.47;2.00;;;11.60;1.00;;;;;;6225644;23;20372;-86
2023/03/28 11:39:05;;;;;;;4.88;2.15;;;11.70;1.00;;;;;;6222872;23;20024;-87
2023/03/28 11:41:54;;;;;;;5.38;2.05;;;11.90;1.00;;;;;;6245824;23;20032;-86
2023/03/28 11:44:57;;;;;;;7.20;1.95;;;12.20;1.00;;;;;;6226578;22;20404;-84
2023/03/28 11:48:04;;;;;;;7.18;2.35;;;12.40;1.00;;;;;;6245397;23;20126;-86
2023/03/28 11:51:26;;;;;;;6.43;2.10;;;11.50;1.00;;;;;;6245183;23;20020;-86
2023/03/28 11:54:24;;;;;;;7.47;2.72;;;11.20;1.00;;;;;;6247606;23;20355;-86
2023/03/28 11:57:18;;;;;;;5.05;2.13;;;11.70;1.00;;;;;;6249481;23;20020;-86
2023/03/28 12:00:23;;;;;;;3.30;2.03;;;11.70;1.00;;;;;;6248358;23;20428;-85
2023/03/28 12:03:45;;;;;;;5.90;2.72;;;12.20;1.00;;;;;;6249796;23;20052;-82
2023/03/28 12:06:58;;;;;;;6.68;2.25;;;11.10;1.00;;;;;;6195083;23;20024;-85
2023/03/28 12:10:14;;;;;;;4.15;2.40;;;10.50;1.00;;;;;;6224308;23;20028;-84
2023/03/28 12:13:29;;;;;;;3.10;1.92;;;11.00;1.00;;;;;;6227731;23;20039;-85
2023/03/28 12:16:22;;;;;;;4.18;2.35;;;10.70;1.00;;;;;;6254307;23;20050;-85
2023/03/28 12:19:16;;;;;;;6.32;2.65;;;10.20;1.00;;;;;;6229216;23;20068;-83
2023/03/28 12:22:20;;;;;;;5.68;2.40;;;10.20;1.00;;;;;;6233637;23;20430;-84
2023/03/28 12:25:37;;;;;;;5.60;2.20;;;10.10;1.00;;;;;;6249292;23;20086;-85
2023/03/28 12:28:42;;;;;;;5.75;2.17;;;10.70;1.00;;;;;;6251339;23;20032;-86
2023/03/28 12:31:48;;;;;;;5.72;2.28;;;11.20;1.00;;;;;;6247359;23;20032;-86
2023/03/28 12:34:46;;;;;;;5.00;2.20;;;11.90;1.00;;;;;;6249606;23;20039;-85
2023/03/28 12:38:01;;;;;;;3.90;2.00;;;11.80;1.00;;;;;;6224853;23;20331;-86
2023/03/28 12:41:14;;;;;;;4.20;2.42;;;12.00;1.00;;;;;;6227883;23;20446;-86
2023/03/28 12:44:25;;;;;;;5.75;1.85;;;12.00;1.00;;;;;;6246820;23;20356;-84
2023/03/28 12:47:23;;;;;;;5.22;2.17;;;12.20;1.00;;;;;;6247631;23;20024;-86
2023/03/28 12:50:28;;;;;;;4.20;2.05;;;13.60;1.00;;;;;;6248970;23;20028;-87
2023/03/28 12:53:20;;;;;;;5.95;1.85;;;14.00;1.00;;;;;;6226507;23;20024;-86
2023/03/28 12:56:15;;;;;;;3.67;1.95;;;13.70;1.00;;;;;;6246084;23;20039;-84
2023/03/28 12:59:35;;;;;;;2.80;1.80;;;14.70;1.00;;;;;;6244377;22;20024;-84
2023/03/28 13:02:43;;;;;;;6.05;2.13;;;16.80;1.00;;;;;;6222756;23;20313;-85
2023/03/28 13:06:05;;;;;;;4.57;1.58;;;17.40;1.00;;;;;;6224116;23;20046;-88
2023/03/28 13:09:15;;;;;;;6.55;1.98;;;18.30;1.00;;;;;;6221409;23;20078;-87
2023/03/28 13:12:21;;;;;;;2.40;1.92;;;18.90;1.00;;;;;;6244976;23;20300;-85
2023/03/28 13:15:12;;;;;;;5.82;1.60;;;18.70;1.00;;;;;;6225127;23;20020;-85
2023/03/28 13:18:20;;;;;;;3.28;1.85;;;19.40;1.00;;;;;;6247703;22;20027;-86
2023/03/28 13:21:16;;;;;;;7.28;1.98;;;18.80;1.00;;;;;;6224840;23;20328;-87
2023/03/28 13:24:25;;;;;;;2.75;1.88;;;19.60;1.00;;;;;;6242203;23;20055;-85
2023/03/28 13:27:33;;;;;;;5.35;2.00;;;18.70;1.00;;;;;;6245050;23;20094;-85
2023/03/28 13:30:34;;;;;;;3.60;2.20;;;15.50;1.00;;;;;;6244670;23;20039;-87
2023/03/28 13:33:32;;;;;;;7.38;2.53;;;15.00;1.00;;;;;;6246525;23;20055;-83
2023/03/28 13:36:25;;;;;;;3.63;1.98;;;15.40;1.00;;;;;;6245752;23;20047;-85
2023/03/28 13:39:38;;;;;;;;;;;;;;;;;;;;;
2023/03/28 13:42:32;;;;;;;5.18;2.05;;;16.80;1.00;;;;;;6244520;23;20494;-84
2023/03/28 13:45:24;;;;;;;3.78;2.10;;;15.90;1.00;;;;;;6244831;23;20052;-83
2023/03/28 13:48:14;;;;;;;5.25;2.00;;;16.30;1.00;;;;;;6243763;23;20031;-84
2023/03/28 13:51:07;;;;;;;3.10;1.80;;;18.00;1.00;;;;;;6244392;23;20031;-88
2023/03/28 13:53:55;;;;;;;2.45;1.40;;;19.40;1.00;;;;;;6223553;23;20151;-84
2023/03/28 13:56:46;;;;;;;6.63;2.08;;;19.40;1.00;;;;;;6244906;23;20146;-83
2023/03/28 13:59:38;;;;;;;4.72;1.88;;;18.60;1.00;;;;;;6223147;23;20338;-84
2023/03/28 14:02:34;;;;;;;3.85;1.75;;;16.50;1.00;;;;;;6244765;23;20032;-84
2023/03/28 14:05:28;;;;;;;4.05;2.03;;;17.00;1.00;;;;;;6223004;23;20024;-85
2023/03/28 14:08:16;;;;;;;4.40;1.80;;;16.50;1.00;;;;;;6243614;23;20039;-84
2023/03/28 14:11:06;;;;;;;2.45;1.77;;;16.30;1.00;;;;;;6245377;23;20111;-83
2023/03/28 14:14:12;;;;;;;3.90;2.10;;;15.80;1.00;;;;;;6243374;23;20402;-86
2023/03/28 14:17:02;;;;;;;4.38;2.33;;;16.20;1.00;;;;;;6224672;23;20020;-85
2023/03/28 14:19:57;;;;;;;7.25;2.03;;;16.70;1.00;;;;;;6223906;23;20319;-87
2023/03/28 14:22:50;;;;;;;3.95;1.85;;;16.10;1.00;;;;;;6245251;23;20055;-85
2023/03/28 14:25:50;;;;;;;5.28;2.13;;;15.50;1.00;;;;;;6247308;22;20039;-87
2023/03/28 14:28:57;;;;;;;3.05;1.85;;;15.60;1.00;;;;;;6243920;23;20439;-85
2023/03/28 14:31:50;;;;;;;3.47;2.00;;;15.40;1.00;;;;;;6223265;23;20113;-85
2023/03/28 14:34:40;;;;;;;;;;;15.10;1.00;;;;;;6224635;23;20032;-85
2023/03/28 14:37:28;;;;;;;4.20;1.80;;;16.20;1.00;;;;;;6245447;23;19922;-84
2023/03/28 14:40:23;;;;;;;3.95;1.95;;;17.10;1.00;;;;;;6223310;23;20028;-84
2023/03/28 14:43:13;;;;;;;2.38;1.40;;;18.70;1.00;;;;;;6223318;23;20416;-84
2023/03/28 14:46:06;;;;;;;3.83;1.90;;;19.00;1.00;;;;;;6246457;23;20028;-84
2023/03/28 14:49:00;;;;;;;4.43;2.05;;;17.80;1.00;;;;;;6227385;23;20028;-84
2023/03/28 14:51:55;;;;;;;3.60;1.67;;;17.00;1.00;;;;;;6245826;23;20032;-84
2023/03/28 14:54:46;;;;;;;3.03;1.50;;;17.30;1.00;;;;;;6222177;23;20496;-84
2023/03/28 14:57:36;;;;;;;2.67;1.67;;;16.20;1.00;;;;;;6245168;23;20028;-85
2023/03/28 15:00:34;;;;;;;3.15;1.63;;;15.90;1.00;;;;;;6246351;23;20031;-82
2023/03/28 15:03:37;;;;;;;3.83;1.90;;;16.10;1.00;;;;;;6215006;23;20031;-83
2023/03/28 15:06:28;;;;;;;3.88;1.50;;;15.60;1.00;;;;;;6226049;23;20030;-84
2023/03/28 15:09:28;;;;;;;3.83;1.90;;;14.40;1.00;;;;;;6246442;23;20028;-83
2023/03/28 15:12:20;;;;;;;3.13;1.73;;;14.70;1.00;;;;;;6246843;23;20105;-85
2023/03/28 15:15:32;;;;;;;5.97;2.63;;;14.30;1.00;;;;;;6245985;23;20024;-84
2023/03/28 15:18:27;;;;;;;8.55;2.60;;;14.10;1.00;;;;;;6223369;23;20024;-83
2023/03/28 15:21:16;;;;;;;2.88;1.95;;;14.70;1.00;;;;;;6246368;23;20082;-84
2023/03/28 15:24:06;;;;;;;2.67;1.50;;;14.40;1.00;;;;;;6226808;23;20078;-84
2023/03/28 15:27:00;;;;;;;5.95;2.30;;;14.60;1.00;;;;;;6246985;23;20035;-84
2023/03/28 15:29:47;;;;;;;4.35;2.20;;;14.70;1.00;;;;;;6225983;23;20028;-83
2023/03/28 15:32:37;;;;;;;5.10;2.05;;;15.30;1.00;;;;;;6223783;23;20024;-83
2023/03/28 15:35:38;;;;;;;3.67;1.90;;;16.10;1.00;;;;;;6245413;23;20050;-83
2023/03/28 15:38:26;;;;;;;5.00;2.20;;;17.20;1.00;;;;;;6223985;23;20034;-83
2023/03/28 15:41:46;;;;;;;8.65;2.03;;;17.60;1.00;;;;;;6224642;23;20138;-83
2023/03/28 15:44:39;;;;;;;5.10;2.38;;;16.90;1.00;;;;;;6243782;23;20031;-84
2023/03/28 15:47:29;;;;;;;;;;;16.80;1.00;;;;;;6246689;23;20031;-83
2023/03/28 15:50:34;;;;;;;6.00;2.25;;;16.80;1.00;;;;;;6244777;23;19926;-83
2023/03/28 15:53:29;;;;;;;4.60;2.13;;;17.20;1.00;;;;;;6245469;23;20109;-83
2023/03/28 15:56:29;;;;;;;4.90;2.20;;;16.60;1.00;;;;;;6245969;23;20024;-83
2023/03/28 15:59:39;;;;;;;4.65;2.00;;;16.30;1.00;;;;;;6224997;23;20024;-82
2023/03/28 16:02:26;;;;;;;5.10;2.03;;;15.50;1.00;;;;;;6245855;23;20039;-84
2023/03/28 16:05:13;;;;;;;5.93;2.28;;;14.70;1.00;;;;;;6245115;23;20024;-82
2023/03/28 16:08:01;;;;;;;8.50;2.25;;;14.30;1.00;;;;;;6246308;23;20024;-83
2023/03/28 16:10:48;;;;;;;3.42;2.05;;;13.50;1.00;;;;;;6244961;23;20035;-83
2023/03/28 16:13:42;;;;;;;4.80;2.10;;;12.70;1.00;;;;;;6227469;23;20054;-84
2023/03/28 16:16:29;;;;;;;4.40;1.92;;;12.10;1.00;;;;;;6245179;23;20031;-83
2023/03/28 16:19:20;;;;;;;4.95;1.80;;;11.50;1.00;;;;;;6224152;23;20396;-83
2023/03/28 16:22:09;;;;;;;2.63;1.85;;;12.00;1.00;;;;;;6224625;23;20020;-85
2023/03/28 16:24:57;;;;;;;5.05;2.15;;;13.20;1.00;;;;;;6245089;23;20319;-84
2023/03/28 16:27:44;;;;;;;2.47;1.77;;;13.30;1.00;;;;;;6245047;23;20024;-84
2023/03/28 16:30:40;;;;;;;3.13;1.58;;;13.40;1.00;;;;;;6245204;23;20032;-84
2023/03/28 16:33:27;;;;;;;5.30;1.70;;;12.60;1.00;;;;;;6245298;23;20032;-83
2023/03/28 16:36:19;;;;;;;5.32;1.95;;;11.70;1.00;;;;;;6247585;22;20035;-83
2023/03/28 16:39:07;;;;;;;5.20;2.17;;;10.90;1.00;;;;;;6246699;23;20335;-83
2023/03/28 16:41:54;;;;;;;4.63;2.33;;;10.10;1.00;;;;;;6225360;23;20119;-82
2023/03/28 16:44:42;;;;;;;4.15;2.28;;;9.50;1.00;;;;;;6247100;23;20028;-84
2023/03/28 16:47:29;;;;;;;10.23;2.17;;;9.20;1.00;;;;;;6247377;23;20024;-83
2023/03/28 16:50:17;;;;;;;7.03;2.28;;;9.00;1.00;;;;;;6248296;23;20092;-84
2023/03/28 16:53:05;;;;;;;5.30;2.45;;;8.90;1.00;;;;;;6248445;22;20035;-83
2023/03/28 16:55:52;;;;;;;3.60;2.03;;;8.70;1.00;;;;;;6245907;23;20107;-84
2023/03/28 16:58:49;;;;;;;4.82;2.30;;;8.50;1.00;;;;;;6243670;23;20186;-85
2023/03/28 17:01:37;;;;;;;3.97;2.00;;;8.40;1.00;;;;;;6242908;23;20039;-85
2023/03/28 17:04:25;;;;;;;5.05;2.20;;;8.20;1.00;;;;;;6245338;23;20024;-84
2023/03/28 17:07:16;;;;;;;7.13;2.80;;;8.00;1.00;;;;;;6222294;23;20422;-84
2023/03/28 17:10:05;;;;;;;5.32;2.95;;;7.90;1.00;;;;;;6245970;23;20032;-85
2023/03/28 17:13:16;;;;;;;3.70;2.20;;;7.80;1.00;;;;;;6227387;23;20602;-86
2023/03/28 17:16:08;;;;;;;4.78;2.70;;;7.60;1.00;;;;;;6245529;23;20125;-83
2023/03/28 17:18:56;;;;;;;8.82;3.58;;;7.50;1.00;;;;;;6244996;23;20020;-83
2023/03/28 17:21:44;;;;;;;4.85;2.42;;;7.50;1.00;;;;;;6246597;23;20024;-84
2023/03/28 17:24:33;;;;;;;8.15;2.53;;;7.40;1.00;;;;;;6224507;23;20273;-84
2023/03/28 17:27:23;;;;;;;8.75;4.82;;;7.40;1.00;;;;;;6245964;23;20359;-84
2023/03/28 17:30:11;;;;;;;6.15;2.72;;;7.30;1.00;;;;;;6247264;23;20107;-85
2023/03/28 17:33:00;;;;;;;6.43;2.35;;;7.30;1.00;;;;;;6246979;23;20027;-85
2023/03/28 17:35:48;;;;;;;7.45;1.88;;;7.10;1.00;;;;;;6246149;22;20027;-85
2023/03/28 17:38:52;;;;;;;5.65;2.20;;;7.00;1.00;;;;;;6243396;23;20103;-85
2023/03/28 17:41:40;;;;;;;4.75;2.22;;;6.90;1.00;;;;;;6242899;23;20098;-84
2023/03/28 17:44:27;;;;;;;6.57;2.25;;;6.80;1.00;;;;;;6244988;23;20040;-85
2023/03/28 17:47:15;;;;;;;6.10;2.92;;;6.70;1.00;;;;;;6227034;23;20031;-84
2023/03/28 17:50:02;;;;;;;8.20;3.58;;;6.60;1.00;;;;;;6246871;23;20024;-84
2023/03/28 17:52:50;;;;;;;7.93;3.42;;;6.60;1.00;;;;;;6244928;23;20447;-84
2023/03/28 17:55:38;;;;;;;10.23;4.57;;;6.50;1.00;;;;;;6244565;23;20020;-83
2023/03/28 17:58:28;;;;;;;9.98;5.40;;;6.50;1.00;;;;;;6245283;23;20051;-83
2023/03/28 18:01:19;;;;;;;10.27;5.25;;;6.50;1.00;;;;;;6244550;23;20042;-83
2023/03/28 18:04:06;;;;;;;14.75;4.90;;;6.50;1.00;;;;;;6244370;23;20020;-82
2023/03/28 18:06:55;;;;;;;9.98;4.93;;;6.50;1.00;;;;;;6222496;23;20430;-83
2023/03/28 18:09:42;;;;;;;9.85;3.53;;;6.50;1.00;;;;;;6246062;22;20028;-83
2023/03/28 18:12:32;;;;;;;8.30;3.38;;;6.50;1.00;;;;;;6246648;22;20036;-84
2023/03/28 18:15:23;;;;;;;9.50;2.80;;;6.60;1.00;;;;;;6244194;23;20032;-83
2023/03/28 18:18:36;;;;;;;5.85;3.00;;;6.50;1.00;;;;;;6213163;23;20091;-85
2023/03/28 18:21:23;;;;;;;6.22;3.08;;;6.50;1.00;;;;;;6242414;23;20031;-84
2023/03/28 18:24:11;;;;;;;5.60;2.72;;;6.40;1.00;;;;;;6246680;23;20020;-84
2023/03/28 18:27:00;;;;;;;7.78;3.17;;;6.50;1.00;;;;;;6225975;23;20130;-84
2023/03/28 18:29:49;;;;;;;6.25;2.85;;;6.40;1.00;;;;;;6226061;23;20063;-85
2023/03/28 18:32:37;;;;;;;5.75;3.50;;;6.40;1.00;;;;;;6247236;23;20104;-85
2023/03/28 18:35:25;;;;;;;9.82;3.20;;;6.40;1.00;;;;;;6247366;23;20120;-84